Time;durP1;ratioP1;P1;durP2;ratioP2;P2;SDS_P1;SDS_P2;PMS_P1;PMS_P2;Temp;Humidity;BMP_temperature;BMP_pressure;BME280_temperature;BME280_humidity;BME280_pressure;Samples;Min_cycle;Max_cycle;Signal;HPM_P1;HPM_P2
2023/06/11 00:00:09;;;;;;;1.25;1.10;;;17.80;99.90;;;;;;5069503;28;20056;-77
2023/06/11 00:02:35;;;;;;;1.25;1.25;;;17.80;99.90;;;;;;5067732;28;20523;-77
2023/06/11 00:05:07;;;;;;;0.70;0.70;;;17.70;99.90;;;;;;5070063;28;20045;-77
2023/06/11 00:07:37;;;;;;;0.40;0.40;;;17.70;99.90;;;;;;5065455;28;20078;-77
2023/06/11 00:10:04;;;;;;;0.30;0.30;;;17.60;99.90;;;;;;5058240;28;20064;-77
2023/06/11 00:12:30;;;;;;;0.52;0.52;;;17.60;99.90;;;;;;5051333;28;20052;-77
2023/06/11 00:14:56;;;;;;;1.10;0.60;;;17.60;99.90;;;;;;5062574;28;20078;-77
2023/06/11 00:17:21;;;;;;;0.55;0.55;;;17.60;99.90;;;;;;5069081;28;20952;-77
2023/06/11 00:19:48;;;;;;;0.60;0.60;;;17.60;99.90;;;;;;5063715;28;20045;-77
2023/06/11 00:22:17;;;;;;;0.88;0.88;;;17.60;99.90;;;;;;5065811;28;20056;-77
2023/06/11 00:24:43;;;;;;;0.35;0.35;;;17.60;99.90;;;;;;5070481;28;20476;-77
2023/06/11 00:27:09;;;;;;;1.23;0.95;;;17.60;99.90;;;;;;5071095;28;20109;-77
2023/06/11 00:29:34;;;;;;;1.15;0.88;;;17.50;99.90;;;;;;5069958;28;20413;-77
2023/06/11 00:32:00;;;;;;;0.50;0.50;;;17.50;99.90;;;;;;5060035;28;20127;-77
2023/06/11 00:34:26;;;;;;;1.50;1.30;;;17.50;99.90;;;;;;5061723;28;20040;-77
2023/06/11 00:36:52;;;;;;;0.45;0.45;;;17.50;99.90;;;;;;5058338;28;20049;-77
2023/06/11 00:39:18;;;;;;;0.88;0.85;;;17.40;99.90;;;;;;5070123;28;20063;-77
2023/06/11 00:41:48;;;;;;;0.70;0.70;;;17.40;99.90;;;;;;5070161;28;20501;-77
2023/06/11 00:44:17;;;;;;;0.47;0.47;;;17.40;99.90;;;;;;5069595;28;20044;-77
2023/06/11 00:46:45;;;;;;;0.40;0.40;;;17.50;99.90;;;;;;5065133;28;20051;-77
2023/06/11 00:49:11;;;;;;;0.65;0.65;;;17.40;99.90;;;;;;5067684;28;20045;-77
2023/06/11 00:51:42;;;;;;;0.35;0.35;;;17.40;99.90;;;;;;5061468;28;20049;-77
2023/06/11 00:54:16;;;;;;;0.60;0.60;;;17.40;99.90;;;;;;5068488;28;20040;-77
2023/06/11 00:56:45;;;;;;;1.15;0.55;;;17.30;99.90;;;;;;5062170;28;20044;-77
2023/06/11 00:59:13;;;;;;;1.60;1.10;;;17.30;99.90;;;;;;5068513;28;20477;-77
2023/06/11 01:01:50;;;;;;;0.45;0.45;;;17.30;99.90;;;;;;5068975;28;20054;-77
2023/06/11 01:04:17;;;;;;;0.60;0.60;;;17.30;99.90;;;;;;5061470;28;20048;-77
2023/06/11 01:06:49;;;;;;;0.40;0.40;;;17.20;99.90;;;;;;5061573;28;20040;-77
2023/06/11 01:09:20;;;;;;;1.05;0.95;;;17.20;99.90;;;;;;5056178;28;20502;-77
2023/06/11 01:11:48;;;;;;;3.40;1.08;;;17.20;99.90;;;;;;5047883;28;20080;-77
2023/06/11 01:14:17;;;;;;;5.47;2.17;;;17.20;99.90;;;;;;5064742;28;20052;-77
2023/06/11 01:16:53;;;;;;;1.88;1.77;;;17.20;99.90;;;;;;5063273;28;20056;-77
2023/06/11 01:19:18;;;;;;;1.17;0.95;;;17.20;99.90;;;;;;5068216;28;20052;-77
2023/06/11 01:21:53;;;;;;;1.40;1.05;;;17.20;99.90;;;;;;5065374;28;20052;-77
2023/06/11 01:24:35;;;;;;;0.70;0.70;;;17.20;99.90;;;;;;5066271;28;20059;-77
2023/06/11 01:27:04;;;;;;;0.75;0.75;;;17.20;99.90;;;;;;5067692;28;20119;-77
2023/06/11 01:29:30;;;;;;;1.38;1.13;;;17.10;99.90;;;;;;5051056;28;20052;-77
2023/06/11 01:31:58;;;;;;;0.60;0.60;;;17.10;99.90;;;;;;5062200;28;20045;-77
2023/06/11 01:34:25;;;;;;;0.75;0.75;;;17.10;99.90;;;;;;5066475;28;20067;-77
2023/06/11 01:36:51;;;;;;;4.07;1.42;;;17.10;99.90;;;;;;5055121;28;20105;-77
2023/06/11 01:39:16;;;;;;;0.50;0.47;;;17.00;99.90;;;;;;5064826;28;20124;-77
2023/06/11 01:41:42;;;;;;;0.85;0.85;;;17.00;99.90;;;;;;5065305;28;20445;-77
2023/06/11 01:44:07;;;;;;;1.20;1.17;;;16.90;99.90;;;;;;5064158;28;20045;-77
2023/06/11 01:46:33;;;;;;;0.73;0.73;;;16.90;99.90;;;;;;5069065;28;20095;-77
2023/06/11 01:48:59;;;;;;;0.60;0.52;;;16.80;99.90;;;;;;5065683;28;20538;-77
2023/06/11 01:51:25;;;;;;;0.35;0.35;;;16.80;99.90;;;;;;5060933;28;20040;-76
2023/06/11 01:53:51;;;;;;;1.20;1.20;;;16.80;99.90;;;;;;5067844;28;20130;-77
2023/06/11 01:56:16;;;;;;;0.70;0.70;;;16.80;99.90;;;;;;5056246;28;20045;-77
2023/06/11 01:58:45;;;;;;;0.68;0.68;;;16.80;99.90;;;;;;5069126;28;20056;-77
2023/06/11 02:01:12;;;;;;;1.02;1.02;;;16.80;99.90;;;;;;5066406;28;20489;-77
2023/06/11 02:03:39;;;;;;;2.17;1.00;;;16.80;99.90;;;;;;5056476;28;20120;-77
2023/06/11 02:06:05;;;;;;;1.03;0.93;;;16.80;99.90;;;;;;5060775;28;20129;-77
2023/06/11 02:08:31;;;;;;;0.63;0.63;;;16.80;99.90;;;;;;5057897;28;20667;-77
2023/06/11 02:10:57;;;;;;;0.30;0.30;;;16.80;99.90;;;;;;5068071;28;20123;-76
2023/06/11 02:13:22;;;;;;;0.95;0.95;;;16.80;99.90;;;;;;5061189;28;20098;-77
2023/06/11 02:15:48;;;;;;;1.70;0.75;;;16.80;99.90;;;;;;5063716;28;20091;-76
2023/06/11 02:18:13;;;;;;;1.08;1.00;;;16.80;99.90;;;;;;5067248;28;20129;-77
2023/06/11 02:20:39;;;;;;;0.95;0.95;;;16.90;99.90;;;;;;5067043;28;20047;-77
2023/06/11 02:23:05;;;;;;;0.90;0.90;;;16.90;99.90;;;;;;5068590;28;20404;-77
2023/06/11 02:25:30;;;;;;;0.57;0.57;;;16.80;99.90;;;;;;5068116;28;20037;-77
2023/06/11 02:27:56;;;;;;;0.93;0.93;;;16.90;99.90;;;;;;5060628;28;20048;-77
2023/06/11 02:30:22;;;;;;;1.50;1.40;;;16.90;99.90;;;;;;5061652;28;20041;-77
2023/06/11 02:32:47;;;;;;;3.88;1.10;;;16.90;99.90;;;;;;5067409;28;20049;-77
2023/06/11 02:35:13;;;;;;;2.28;1.50;;;16.80;99.90;;;;;;5062871;28;20032;-77
2023/06/11 02:37:38;;;;;;;1.40;1.30;;;16.80;99.90;;;;;;5068410;28;20047;-77
2023/06/11 02:40:05;;;;;;;2.28;1.30;;;16.80;99.90;;;;;;5066437;28;20029;-77
2023/06/11 02:42:30;;;;;;;1.27;1.17;;;16.70;99.90;;;;;;5068218;28;20102;-77
2023/06/11 02:44:56;;;;;;;1.13;1.05;;;16.60;99.90;;;;;;5068620;28;20893;-77
2023/06/11 02:47:21;;;;;;;2.25;1.45;;;16.50;99.90;;;;;;5065162;28;20078;-77
2023/06/11 02:49:47;;;;;;;2.70;2.05;;;16.40;99.90;;;;;;5066108;28;20040;-77
2023/06/11 02:52:13;;;;;;;3.13;1.58;;;16.30;99.90;;;;;;5062897;28;20044;-77
2023/06/11 02:54:38;;;;;;;2.75;2.55;;;16.30;99.90;;;;;;5058524;28;20044;-76
2023/06/11 02:57:05;;;;;;;1.13;1.13;;;16.20;99.90;;;;;;5072479;28;20400;-76
2023/06/11 02:59:30;;;;;;;2.13;1.35;;;16.10;99.90;;;;;;5072432;28;20076;-76
2023/06/11 03:01:56;;;;;;;1.95;1.85;;;16.10;99.90;;;;;;5069768;28;20109;-76
2023/06/11 03:04:22;;;;;;;2.42;2.22;;;16.10;99.90;;;;;;5064290;28;20041;-76
2023/06/11 03:06:47;;;;;;;2.13;1.52;;;16.10;99.90;;;;;;5070352;28;20036;-76
2023/06/11 03:09:13;;;;;;;1.35;1.25;;;16.00;99.90;;;;;;5062095;28;20107;-77
2023/06/11 03:11:38;;;;;;;1.50;1.40;;;16.00;99.90;;;;;;5050618;28;20049;-76
2023/06/11 03:14:04;;;;;;;1.65;1.58;;;16.00;99.90;;;;;;5057436;28;20136;-76
2023/06/11 03:16:30;;;;;;;2.45;2.35;;;15.90;99.90;;;;;;5067870;28;20051;-76
2023/06/11 03:18:55;;;;;;;2.30;2.03;;;15.90;99.90;;;;;;5064299;28;20449;-75
2023/06/11 03:21:21;;;;;;;1.85;1.75;;;15.80;99.90;;;;;;5061943;28;20039;-75
2023/06/11 03:23:47;;;;;;;1.17;1.17;;;15.80;99.90;;;;;;5064295;28;20044;-75
2023/06/11 03:26:12;;;;;;;1.77;1.67;;;15.80;99.90;;;;;;5065903;28;20450;-76
2023/06/11 03:28:38;;;;;;;1.15;1.15;;;15.80;99.90;;;;;;5058036;28;20060;-76
2023/06/11 03:31:04;;;;;;;4.45;3.13;;;15.80;99.90;;;;;;5054731;28;20053;-76
2023/06/11 03:33:29;;;;;;;1.13;1.10;;;15.80;99.90;;;;;;5067949;28;20052;-76
2023/06/11 03:35:55;;;;;;;0.85;0.85;;;15.80;99.90;;;;;;5064719;28;20075;-76
2023/06/11 03:38:20;;;;;;;1.60;1.25;;;15.80;99.90;;;;;;5067846;28;20444;-76
2023/06/11 03:40:46;;;;;;;4.55;2.42;;;15.90;99.90;;;;;;5064219;28;20049;-77
2023/06/11 03:43:12;;;;;;;1.45;1.40;;;15.90;99.90;;;;;;5066112;28;20091;-76
2023/06/11 03:45:37;;;;;;;1.75;1.65;;;15.90;99.90;;;;;;5064558;28;20110;-76
2023/06/11 03:48:04;;;;;;;3.10;2.90;;;16.00;99.90;;;;;;5058102;28;20053;-77
2023/06/11 03:50:30;;;;;;;1.48;1.38;;;16.00;99.90;;;;;;5065408;28;20057;-77
2023/06/11 03:52:55;;;;;;;1.00;1.00;;;16.00;99.90;;;;;;5070391;28;20052;-76
2023/06/11 03:55:21;;;;;;;3.58;3.28;;;16.10;99.90;;;;;;5068927;28;20040;-76
2023/06/11 03:57:47;;;;;;;2.47;2.28;;;16.10;99.90;;;;;;5070228;28;20052;-78
2023/06/11 04:00:13;;;;;;;3.38;2.22;;;16.10;99.90;;;;;;5067130;28;20060;-77
2023/06/11 04:02:39;;;;;;;1.98;1.80;;;16.10;99.90;;;;;;5067169;28;20084;-78
2023/06/11 04:05:04;;;;;;;1.27;1.02;;;16.10;99.90;;;;;;5058843;28;20073;-78
2023/06/11 04:07:30;;;;;;;2.80;1.50;;;16.20;99.90;;;;;;5069817;28;20072;-77
2023/06/11 04:09:55;;;;;;;2.10;1.98;;;16.20;99.90;;;;;;5053904;28;20071;-78
2023/06/11 04:12:21;;;;;;;1.23;1.23;;;16.20;99.90;;;;;;5066781;28;20075;-78
2023/06/11 04:14:47;;;;;;;3.33;1.85;;;16.30;99.90;;;;;;5068364;28;20500;-77
2023/06/11 04:17:12;;;;;;;1.63;1.52;;;16.30;99.90;;;;;;5065147;28;20058;-77
2023/06/11 04:19:38;;;;;;;2.65;2.45;;;16.40;99.90;;;;;;5068838;28;20147;-77
2023/06/11 04:22:05;;;;;;;1.25;1.23;;;16.50;99.90;;;;;;5069291;28;20530;-78
2023/06/11 04:24:30;;;;;;;4.22;2.05;;;16.50;99.90;;;;;;5071287;28;20139;-77
2023/06/11 04:26:56;;;;;;;1.83;1.73;;;16.60;99.90;;;;;;5058532;28;20132;-77
2023/06/11 04:29:29;;;;;;;4.72;2.58;;;16.60;99.90;;;;;;5064663;28;20158;-77
2023/06/11 04:31:54;;;;;;;4.28;3.92;;;16.70;99.90;;;;;;5064491;28;20128;-77
2023/06/11 04:34:20;;;;;;;2.55;2.35;;;16.70;99.90;;;;;;5059454;28;20124;-77
2023/06/11 04:36:47;;;;;;;2.22;1.38;;;16.80;99.90;;;;;;5070615;28;20044;-77
2023/06/11 04:39:13;;;;;;;2.13;2.00;;;16.90;99.90;;;;;;5069205;28;20193;-77
2023/06/11 04:41:39;;;;;;;2.17;1.98;;;16.90;99.90;;;;;;5060624;28;20033;-77
2023/06/11 04:44:05;;;;;;;1.50;1.40;;;16.90;99.90;;;;;;5064454;28;20045;-77
2023/06/11 04:46:34;;;;;;;1.77;1.67;;;17.00;99.90;;;;;;5066528;28;20438;-77
2023/06/11 04:49:00;;;;;;;2.92;2.72;;;17.00;99.90;;;;;;5061394;28;20048;-77
2023/06/11 04:51:32;;;;;;;2.15;2.05;;;17.10;99.90;;;;;;5069006;28;20048;-77
2023/06/11 04:54:01;;;;;;;6.00;3.85;;;17.20;99.90;;;;;;5069459;28;20044;-76
2023/06/11 04:56:26;;;;;;;5.72;3.58;;;17.20;99.90;;;;;;5068001;28;20033;-77
2023/06/11 04:58:53;;;;;;;1.85;1.63;;;17.30;99.90;;;;;;5064426;28;20074;-77
2023/06/11 05:01:20;;;;;;;4.25;3.78;;;17.40;99.90;;;;;;5068313;28;20074;-77
2023/06/11 05:03:46;;;;;;;4.80;2.93;;;17.40;99.90;;;;;;5059941;28;20119;-77
2023/06/11 05:06:13;;;;;;;4.30;3.45;;;17.50;99.90;;;;;;5056615;28;20041;-76
2023/06/11 05:08:38;;;;;;;3.67;3.35;;;17.60;99.90;;;;;;5064375;28;20125;-77
2023/06/11 05:11:04;;;;;;;7.90;3.92;;;17.70;99.90;;;;;;5049177;28;20448;-76
2023/06/11 05:13:31;;;;;;;3.85;2.72;;;17.70;99.90;;;;;;5061845;28;20405;-77
2023/06/11 05:15:57;;;;;;;3.05;2.85;;;17.80;99.90;;;;;;5064364;28;20508;-78
2023/06/11 05:18:25;;;;;;;3.90;2.85;;;17.90;99.90;;;;;;5066087;28;20456;-77
2023/06/11 05:20:52;;;;;;;3.63;3.38;;;18.00;99.90;;;;;;5068583;28;20055;-77
2023/06/11 05:23:18;;;;;;;8.55;4.07;;;18.10;99.90;;;;;;5062682;28;20044;-77
2023/06/11 05:25:47;;;;;;;6.00;3.97;;;18.20;99.90;;;;;;5066197;28;20036;-77
2023/06/11 05:28:14;;;;;;;2.47;2.35;;;18.30;99.90;;;;;;5068378;28;20060;-76
2023/06/11 05:30:43;;;;;;;5.20;4.10;;;18.40;99.90;;;;;;5061526;28;20040;-77
2023/06/11 05:33:10;;;;;;;4.50;4.05;;;18.50;99.90;;;;;;5046712;28;20049;-77
2023/06/11 05:35:36;;;;;;;6.13;5.63;;;18.50;99.90;;;;;;5060341;28;20103;-78
2023/06/11 05:38:06;;;;;;;5.55;4.07;;;18.60;99.90;;;;;;5067553;28;20046;-78
2023/06/11 05:40:35;;;;;;;3.47;3.05;;;18.70;99.90;;;;;;5067204;28;20051;-78
2023/06/11 05:43:00;;;;;;;5.95;5.30;;;18.80;99.90;;;;;;5062166;28;20048;-78
2023/06/11 05:45:26;;;;;;;4.78;2.78;;;18.90;99.90;;;;;;5067192;28;20040;-78
2023/06/11 05:47:52;;;;;;;5.18;4.78;;;19.00;99.90;;;;;;5064613;28;20066;-78
2023/06/11 05:50:17;;;;;;;4.45;4.15;;;19.10;99.90;;;;;;5067781;28;20036;-78
2023/06/11 05:52:44;;;;;;;6.90;4.25;;;19.20;99.90;;;;;;5068631;28;20473;-78
2023/06/11 05:55:10;;;;;;;7.85;5.43;;;19.30;99.90;;;;;;5065612;28;20059;-78
2023/06/11 05:57:36;;;;;;;9.15;5.78;;;19.40;99.90;;;;;;5065869;28;20040;-78
2023/06/11 06:00:02;;;;;;;7.03;4.05;;;19.50;99.90;;;;;;5043409;28;20052;-77
2023/06/11 06:02:27;;;;;;;3.47;3.20;;;19.60;99.90;;;;;;5061543;28;20833;-78
2023/06/11 06:04:54;;;;;;;2.70;2.47;;;19.70;99.90;;;;;;5066897;28;20054;-78
2023/06/11 06:07:20;;;;;;;8.07;5.50;;;19.80;99.90;;;;;;5064107;28;20080;-79
2023/06/11 06:09:45;;;;;;;10.20;5.78;;;19.90;99.90;;;;;;5066710;28;20080;-79
2023/06/11 06:12:11;;;;;;;7.97;3.90;;;20.00;99.90;;;;;;5064229;28;20174;-79
2023/06/11 06:14:37;;;;;;;4.40;3.95;;;20.10;99.90;;;;;;5067973;28;20048;-78
2023/06/11 06:17:03;;;;;;;3.97;3.67;;;20.20;99.90;;;;;;5061642;28;20040;-78
2023/06/11 06:19:28;;;;;;;4.72;4.30;;;20.30;99.90;;;;;;5068522;28;20180;-78
2023/06/11 06:21:54;;;;;;;4.53;4.13;;;20.40;99.90;;;;;;5064749;28;20052;-78
2023/06/11 06:24:20;;;;;;;12.93;5.10;;;20.60;99.90;;;;;;5067223;28;20387;-78
2023/06/11 06:26:45;;;;;;;2.85;2.70;;;20.70;99.90;;;;;;5061088;28;20044;-79
2023/06/11 06:29:12;;;;;;;7.80;4.30;;;20.90;99.90;;;;;;5068623;28;20135;-78
2023/06/11 06:31:40;;;;;;;3.72;3.28;;;21.00;99.90;;;;;;5064280;28;20132;-78
2023/06/11 06:34:07;;;;;;;2.75;2.53;;;21.10;99.90;;;;;;5059154;28;20044;-78
2023/06/11 06:36:37;;;;;;;7.40;3.45;;;21.30;99.90;;;;;;5067728;28;20056;-78
2023/06/11 06:39:03;;;;;;;4.85;3.97;;;21.40;99.90;;;;;;5065205;28;20041;-78
2023/06/11 06:41:29;;;;;;;3.30;3.10;;;21.60;99.90;;;;;;5066564;28;20055;-78
2023/06/11 06:43:54;;;;;;;2.85;2.53;;;21.80;99.90;;;;;;5065068;28;20048;-78
2023/06/11 06:46:20;;;;;;;6.68;5.63;;;22.00;99.90;;;;;;5047765;28;20786;-77
2023/06/11 06:48:46;;;;;;;3.25;3.05;;;22.20;99.90;;;;;;5042348;28;20055;-77
2023/06/11 06:51:11;;;;;;;4.90;3.92;;;22.40;99.90;;;;;;5058749;28;20040;-78
2023/06/11 06:53:37;;;;;;;3.20;2.90;;;22.60;99.90;;;;;;5063194;28;20037;-78
2023/06/11 06:56:05;;;;;;;8.38;2.88;;;22.90;99.90;;;;;;5064893;28;20088;-78
2023/06/11 06:58:32;;;;;;;5.45;4.85;;;23.10;99.90;;;;;;5067475;28;20079;-79
2023/06/11 07:00:59;;;;;;;3.28;3.08;;;23.30;99.90;;;;;;5054690;28;20040;-78
2023/06/11 07:03:24;;;;;;;4.63;3.53;;;23.50;99.90;;;;;;5040415;28;20051;-78
2023/06/11 07:05:50;;;;;;;5.38;3.85;;;23.70;99.90;;;;;;5064110;28;20048;-78
2023/06/11 07:08:16;;;;;;;5.05;3.85;;;23.90;99.90;;;;;;5057299;28;20055;-79
2023/06/11 07:10:47;;;;;;;3.15;2.75;;;24.10;99.90;;;;;;5063207;28;20401;-79
2023/06/11 07:13:13;;;;;;;3.55;3.25;;;24.20;99.90;;;;;;5067647;28;20244;-79
2023/06/11 07:15:38;;;;;;;2.33;2.10;;;24.40;99.90;;;;;;5064238;28;20039;-78
2023/06/11 07:18:04;;;;;;;3.13;2.85;;;24.60;99.90;;;;;;5063771;28;20055;-78
2023/06/11 07:20:30;;;;;;;2.15;2.05;;;24.90;99.90;;;;;;5064863;28;20045;-79
2023/06/11 07:22:59;;;;;;;8.63;4.30;;;25.10;99.90;;;;;;5063601;28;20036;-79
2023/06/11 07:25:28;;;;;;;4.38;3.80;;;25.30;99.90;;;;;;5065935;28;20060;-75
2023/06/11 07:27:57;;;;;;;4.68;3.97;;;25.40;99.90;;;;;;5067797;28;20536;-77
2023/06/11 07:30:24;;;;;;;2.35;2.22;;;25.70;99.90;;;;;;5066218;28;20052;-72
2023/06/11 07:32:50;;;;;;;2.73;2.53;;;26.00;99.90;;;;;;5068422;28;20459;-76
2023/06/11 07:35:16;;;;;;;2.65;2.47;;;26.20;99.90;;;;;;5063943;28;20310;-80
2023/06/11 07:37:58;;;;;;;2.53;2.40;;;26.20;99.90;;;;;;5067026;28;20044;-79
2023/06/11 07:40:24;;;;;;;3.05;2.83;;;26.20;99.90;;;;;;5064315;28;20037;-75
2023/06/11 07:42:50;;;;;;;5.30;4.43;;;26.30;99.90;;;;;;5057543;28;20375;-75
2023/06/11 07:45:15;;;;;;;4.20;3.90;;;26.30;97.90;;;;;;5064177;28;20135;-75
2023/06/11 07:47:42;;;;;;;2.13;2.03;;;26.30;97.60;;;;;;5064414;28;20737;-75
2023/06/11 07:50:09;;;;;;;2.35;2.25;;;26.40;97.90;;;;;;5066912;28;20047;-75
2023/06/11 07:52:35;;;;;;;5.85;3.92;;;26.70;97.80;;;;;;5068423;28;20406;-76
2023/06/11 07:55:01;;;;;;;2.13;1.98;;;26.80;96.20;;;;;;5063834;28;20049;-75
2023/06/11 07:57:27;;;;;;;3.47;3.28;;;26.80;96.20;;;;;;5064953;28;20037;-76
2023/06/11 07:59:54;;;;;;;3.75;3.45;;;26.90;95.90;;;;;;5066007;28;20044;-76
2023/06/11 08:02:20;;;;;;;3.05;2.85;;;27.10;94.40;;;;;;5071174;28;20032;-75
2023/06/11 08:04:46;;;;;;;4.97;4.43;;;27.20;94.20;;;;;;5068561;28;20041;-75
2023/06/11 08:07:12;;;;;;;3.83;3.63;;;27.30;93.20;;;;;;5059590;28;20205;-77
2023/06/11 08:09:38;;;;;;;3.63;3.33;;;27.50;93.70;;;;;;5059226;28;20052;-77
2023/06/11 08:12:05;;;;;;;3.20;3.00;;;27.60;92.40;;;;;;5065540;28;20513;-80
2023/06/11 08:14:33;;;;;;;4.25;3.88;;;27.60;91.90;;;;;;5065296;28;20044;-78
2023/06/11 08:16:58;;;;;;;4.20;3.42;;;27.70;92.00;;;;;;5066864;28;20044;-79
2023/06/11 08:19:24;;;;;;;4.22;3.88;;;27.80;92.10;;;;;;5071028;28;20824;-79
2023/06/11 08:21:50;;;;;;;2.65;2.45;;;27.90;91.10;;;;;;5067114;28;20045;-78
2023/06/11 08:24:18;;;;;;;1.70;1.60;;;28.20;91.10;;;;;;5067820;28;20051;-79
2023/06/11 08:26:44;;;;;;;2.00;1.90;;;28.50;91.30;;;;;;5059093;28;20045;-78
2023/06/11 08:29:10;;;;;;;2.75;2.53;;;28.80;89.00;;;;;;5065898;28;20063;-79
2023/06/11 08:31:35;;;;;;;1.85;1.75;;;29.10;89.00;;;;;;5069102;28;20048;-78
2023/06/11 08:34:01;;;;;;;1.73;1.63;;;29.30;87.00;;;;;;5050177;28;20040;-79
2023/06/11 08:36:27;;;;;;;2.97;2.40;;;29.30;86.70;;;;;;5069609;28;20406;-79
2023/06/11 08:38:52;;;;;;;2.80;2.60;;;29.50;84.70;;;;;;5066902;28;20478;-79
2023/06/11 08:41:19;;;;;;;4.28;3.88;;;29.60;83.20;;;;;;5067578;28;20044;-80
2023/06/11 08:43:45;;;;;;;3.17;2.97;;;29.70;83.60;;;;;;5068631;28;20045;-80
2023/06/11 08:46:14;;;;;;;1.85;1.73;;;29.80;81.80;;;;;;5064171;28;20046;-78
2023/06/11 08:48:42;;;;;;;2.17;1.98;;;30.00;80.70;;;;;;5058695;28;20077;-77
2023/06/11 08:51:12;;;;;;;4.30;3.88;;;30.10;82.60;;;;;;5061624;28;20040;-75
2023/06/11 08:53:39;;;;;;;6.63;2.50;;;30.20;78.40;;;;;;5066411;28;20051;-77
2023/06/11 08:56:06;;;;;;;2.70;2.22;;;30.10;77.80;;;;;;5054209;28;20068;-76
2023/06/11 08:58:33;;;;;;;5.45;2.83;;;30.20;76.60;;;;;;5060073;28;20136;-76
2023/06/11 09:01:09;;;;;;;4.15;3.83;;;30.10;77.70;;;;;;5069035;28;20044;-76
2023/06/11 09:03:35;;;;;;;2.10;2.00;;;29.90;75.40;;;;;;5063492;28;20048;-76
2023/06/11 09:06:01;;;;;;;2.35;2.25;;;29.80;75.30;;;;;;5067229;28;20436;-76
2023/06/11 09:08:27;;;;;;;2.42;2.33;;;29.80;75.80;;;;;;5064277;28;20051;-76
2023/06/11 09:10:53;;;;;;;2.15;1.60;;;30.00;76.20;;;;;;5060885;28;20041;-76
2023/06/11 09:13:19;;;;;;;1.67;1.55;;;30.20;75.80;;;;;;5061792;28;20156;-80
2023/06/11 09:15:53;;;;;;;1.40;1.40;;;30.40;75.20;;;;;;5051831;28;20045;-76
2023/06/11 09:18:26;;;;;;;3.45;2.05;;;30.50;75.00;;;;;;5063447;28;20688;-76
2023/06/11 09:20:56;;;;;;;1.80;1.42;;;30.80;74.90;;;;;;5057234;28;20063;-76
2023/06/11 09:23:32;;;;;;;1.58;1.48;;;31.00;74.00;;;;;;5061883;28;20437;-78
2023/06/11 09:26:00;;;;;;;10.88;4.22;;;31.10;72.20;;;;;;5062384;28;20414;-79
2023/06/11 09:28:33;;;;;;;;;;;30.80;70.20;;;;;;5051145;28;20064;-78
2023/06/11 09:31:01;;;;;;;3.40;3.10;;;30.60;71.40;;;;;;5059651;28;19921;-79
2023/06/11 09:33:31;;;;;;;3.90;2.58;;;30.60;71.40;;;;;;5062807;28;20048;-79
2023/06/11 09:36:00;;;;;;;2.33;2.13;;;30.60;72.50;;;;;;5063524;28;20497;-78
2023/06/11 09:38:27;;;;;;;1.58;1.48;;;30.60;71.00;;;;;;5064710;28;20102;-79
2023/06/11 09:40:56;;;;;;;1.48;1.38;;;30.60;70.40;;;;;;5059485;28;20045;-77
2023/06/11 09:43:23;;;;;;;3.78;3.45;;;30.60;71.50;;;;;;5062226;28;20102;-78
2023/06/11 09:45:54;;;;;;;1.77;1.70;;;30.80;70.90;;;;;;5051124;28;20041;-74
2023/06/11 09:48:21;;;;;;;3.65;3.35;;;31.00;69.90;;;;;;5063659;28;20193;-74
2023/06/11 09:50:53;;;;;;;3.13;2.42;;;31.20;69.80;;;;;;5058259;28;20048;-77
2023/06/11 09:53:21;;;;;;;4.80;3.15;;;31.30;68.20;;;;;;5061240;28;20657;-75
2023/06/11 09:55:51;;;;;;;3.40;3.20;;;31.40;68.20;;;;;;5066938;28;20045;-75
2023/06/11 09:58:27;;;;;;;3.38;3.17;;;31.40;67.40;;;;;;5061688;28;20486;-74
2023/06/11 10:01:00;;;;;;;2.72;2.53;;;31.20;67.40;;;;;;5067808;28;20416;-77
2023/06/11 10:03:26;;;;;;;2.90;2.67;;;31.10;68.50;;;;;;5062675;28;20562;-74
2023/06/11 10:05:53;;;;;;;4.32;3.90;;;31.00;67.20;;;;;;5067710;28;20656;-77
2023/06/11 10:08:34;;;;;;;3.47;3.20;;;30.80;65.60;;;;;;5060272;28;20155;-74
2023/06/11 10:11:02;;;;;;;3.90;2.72;;;30.60;65.40;;;;;;5065671;28;20054;-75
2023/06/11 10:13:33;;;;;;;2.05;1.95;;;30.80;67.90;;;;;;5064666;28;20122;-77
2023/06/11 10:16:02;;;;;;;3.28;3.08;;;31.10;65.90;;;;;;5061402;28;20047;-77
2023/06/11 10:18:30;;;;;;;1.98;1.88;;;31.40;65.90;;;;;;5067393;28;20048;-77
2023/06/11 10:20:59;;;;;;;2.47;2.28;;;31.70;64.70;;;;;;5067303;28;20141;-77
2023/06/11 10:23:40;;;;;;;1.83;1.73;;;31.90;64.10;;;;;;5049907;28;20044;-77
2023/06/11 10:26:06;;;;;;;1.73;1.63;;;32.10;63.10;;;;;;5063591;28;20788;-78
2023/06/11 10:28:37;;;;;;;1.48;1.30;;;32.20;63.60;;;;;;5058715;28;20084;-76
2023/06/11 10:31:04;;;;;;;2.03;1.92;;;32.20;62.10;;;;;;5059964;28;20056;-77
2023/06/11 10:33:41;;;;;;;;;;;32.30;63.30;;;;;;5062368;28;20103;-79
2023/06/11 10:36:06;;;;;;;5.00;3.75;;;32.30;59.70;;;;;;5066773;28;19924;-77
2023/06/11 10:38:37;;;;;;;2.00;1.80;;;32.00;59.30;;;;;;5066774;28;20093;-77
2023/06/11 10:41:03;;;;;;;4.47;4.10;;;31.90;60.50;;;;;;5060342;28;20685;-77
2023/06/11 10:43:31;;;;;;;3.03;2.22;;;32.10;59.60;;;;;;5063825;28;20497;-77
2023/06/11 10:46:06;;;;;;;4.82;3.20;;;32.30;61.00;;;;;;5063750;28;20409;-78
2023/06/11 10:48:32;;;;;;;6.75;3.00;;;32.50;60.20;;;;;;5055284;28;20110;-79
2023/06/11 10:51:13;;;;;;;2.25;2.15;;;32.60;59.20;;;;;;5061935;28;20440;-83
2023/06/11 10:53:41;;;;;;;3.50;2.70;;;32.60;58.50;;;;;;5060632;28;20045;-82
2023/06/11 10:56:08;;;;;;;3.08;2.88;;;32.70;58.00;;;;;;5049703;28;20164;-82
2023/06/11 10:58:36;;;;;;;2.28;2.08;;;32.90;56.80;;;;;;5062592;28;20044;-84
2023/06/11 11:01:04;;;;;;;4.68;3.25;;;33.10;56.90;;;;;;5066695;28;20044;-83
2023/06/11 11:03:31;;;;;;;1.25;1.15;;;33.20;56.00;;;;;;5066340;28;20131;-83
2023/06/11 11:05:57;;;;;;;2.00;1.90;;;33.40;55.20;;;;;;5067783;28;20176;-81
2023/06/11 11:08:23;;;;;;;1.13;1.13;;;33.50;56.50;;;;;;5070743;28;20048;-82
2023/06/11 11:11:01;;;;;;;2.75;1.63;;;33.70;55.10;;;;;;5068495;28;20428;-84
2023/06/11 11:13:30;;;;;;;2.83;2.63;;;33.60;54.50;;;;;;5069429;28;20048;-82
2023/06/11 11:15:58;;;;;;;2.17;2.08;;;33.70;54.40;;;;;;5060812;28;20045;-83
2023/06/11 11:18:24;;;;;;;2.80;2.13;;;33.60;54.70;;;;;;5065447;28;20052;-86
2023/06/11 11:20:53;;;;;;;5.65;2.85;;;33.60;54.10;;;;;;5051422;28;20451;-86
2023/06/11 11:23:19;;;;;;;2.80;2.60;;;33.50;52.60;;;;;;5066023;28;20083;-83
2023/06/11 11:25:45;;;;;;;1.48;1.38;;;33.50;53.40;;;;;;5066383;28;20080;-78
2023/06/11 11:28:12;;;;;;;3.70;3.03;;;33.60;53.30;;;;;;5069990;28;20543;-75
2023/06/11 11:30:39;;;;;;;1.48;1.48;;;33.50;51.90;;;;;;5061724;28;20080;-76
2023/06/11 11:33:05;;;;;;;;;;;33.50;53.30;;;;;;5070219;28;20101;-74
2023/06/11 11:35:30;;;;;;;3.40;3.20;;;33.50;51.30;;;;;;5066235;28;19924;-75
2023/06/11 11:37:56;;;;;;;3.08;2.88;;;33.60;51.20;;;;;;5050293;28;20317;-75
2023/06/11 11:40:23;;;;;;;2.95;2.75;;;33.60;52.20;;;;;;5046218;28;20086;-76
2023/06/11 11:42:51;;;;;;;2.30;2.17;;;33.70;52.40;;;;;;5070181;28;20041;-76
2023/06/11 11:45:18;;;;;;;2.20;2.05;;;33.90;51.60;;;;;;5062390;28;20533;-75
2023/06/11 11:47:46;;;;;;;;;;;34.00;51.90;;;;;;5062842;28;20092;-75
2023/06/11 11:50:30;;;;;;;2.70;2.50;;;34.00;50.30;;;;;;5069498;28;19925;-76
2023/06/11 11:53:05;;;;;;;2.10;2.00;;;34.20;50.50;;;;;;5068516;28;20110;-74
2023/06/11 11:55:37;;;;;;;2.33;2.08;;;34.20;50.80;;;;;;5069379;28;20567;-74
2023/06/11 11:58:07;;;;;;;2.45;2.35;;;33.90;50.30;;;;;;5044818;28;20059;-74
2023/06/11 12:00:34;;;;;;;4.07;3.45;;;33.50;49.10;;;;;;5066992;28;20425;-75
2023/06/11 12:03:08;;;;;;;2.55;2.03;;;33.50;49.40;;;;;;5063396;28;20048;-75
2023/06/11 12:05:35;;;;;;;4.88;3.60;;;33.50;50.70;;;;;;5070918;28;20179;-75
2023/06/11 12:08:01;;;;;;;;;;;33.50;50.90;;;;;;5053555;28;20052;-74
2023/06/11 12:10:27;;;;;;;3.55;3.10;;;33.50;50.60;;;;;;5058505;28;20055;-74
2023/06/11 12:12:53;;;;;;;4.97;3.85;;;33.30;49.30;;;;;;5068848;28;20032;-74
2023/06/11 12:15:19;;;;;;;4.00;3.70;;;33.00;50.00;;;;;;5063105;28;20409;-74
2023/06/11 12:17:45;;;;;;;3.22;3.05;;;32.80;50.20;;;;;;5060876;28;20037;-74
2023/06/11 12:20:11;;;;;;;3.53;3.33;;;32.60;49.70;;;;;;5070827;28;20133;-74
2023/06/11 12:22:38;;;;;;;5.63;3.83;;;32.40;49.20;;;;;;5070630;28;20044;-73
2023/06/11 12:25:04;;;;;;;3.75;3.13;;;32.50;51.00;;;;;;5066560;28;20886;-74
2023/06/11 12:27:30;;;;;;;5.97;4.22;;;32.40;49.90;;;;;;5068856;28;20064;-75
2023/06/11 12:29:55;;;;;;;5.05;4.65;;;32.20;49.70;;;;;;5070584;28;20052;-74
2023/06/11 12:32:22;;;;;;;2.10;2.00;;;31.80;49.90;;;;;;5063957;28;20052;-74
2023/06/11 12:34:51;;;;;;;2.92;2.17;;;31.70;50.40;;;;;;5063485;28;20040;-75
2023/06/11 12:37:17;;;;;;;2.10;2.00;;;31.80;50.00;;;;;;5066428;28;20051;-74
2023/06/11 12:39:43;;;;;;;3.10;2.60;;;31.70;50.10;;;;;;5061009;28;20078;-75
2023/06/11 12:42:10;;;;;;;3.70;3.10;;;31.70;50.00;;;;;;5057424;28;20041;-75
2023/06/11 12:44:36;;;;;;;5.25;4.68;;;31.80;50.50;;;;;;5063824;28;20044;-74
2023/06/11 12:47:02;;;;;;;2.65;2.45;;;31.80;49.70;;;;;;5051672;28;20052;-74